Time;durP1;ratioP1;P1;durP2;ratioP2;P2;SDS_P1;SDS_P2;PMS_P1;PMS_P2;Temp;Humidity;BMP_temperature;BMP_pressure;BME280_temperature;BME280_humidity;BME280_pressure;Samples;Min_cycle;Max_cycle;Signal;HPM_P1;HPM_P2
2022/02/09 00:09:03;;;;;;;37.20;19.17;;;;;;;;;;5034490;28;20450;-68
2022/02/09 00:11:36;;;;;;;37.50;20.67;;;;;;;;;;5034455;28;20033;-67
2022/02/09 00:14:12;;;;;;;34.43;19.67;;;;;;;;;;5033240;28;20049;-67
2022/02/09 00:19:28;;;;;;;38.60;19.20;;;;;;;;;;5034631;28;20037;-66
2022/02/09 00:32:13;;;;;;;68.97;20.70;;;;;;;;;;5034864;28;20025;-66
2022/02/09 01:39:00;;;;;;;34.47;17.17;;;;;;;;;;5033097;28;20518;-68
2022/02/09 01:57:40;;;;;;;29.07;14.60;;;;;;;;;;5032414;28;20522;-67
2022/02/09 02:00:07;;;;;;;36.10;14.10;;;;;;;;;;5030130;28;20116;-69
2022/02/09 02:02:33;;;;;;;36.00;17.70;;;;;;;;;;5030044;28;20103;-68
2022/02/09 02:04:59;;;;;;;36.83;18.20;;;;;;;;;;5032913;28;20021;-68
2022/02/09 02:07:40;;;;;;;40.17;18.77;;;;;;;;;;5035644;28;20366;-67
2022/02/09 02:10:09;;;;;;;32.53;17.33;;;;;;;;;;5036574;28;20077;-67
2022/02/09 02:13:13;;;;;;;34.13;16.60;;;;;;;;;;5036777;28;20374;-69
2022/02/09 02:18:15;;;;;;;39.40;16.97;;;;;;;;;;5036713;28;20029;-67
2022/02/09 02:20:56;;;;;;;42.83;16.90;;;;;;;;;;5036526;28;20484;-67
2022/02/09 02:39:24;;;;;;;24.63;14.87;;;;;;;;;;5035830;28;20421;-67
2022/02/09 03:14:33;;;;;;;31.17;12.90;;;;;;;;;;5012730;28;20476;-69
2022/02/09 03:17:04;;;;;;;26.53;13.90;;;;;;;;;;5034951;28;20021;-72
2022/02/09 03:19:45;;;;;;;28.70;14.20;;;;;;;;;;5035677;28;20612;-68
2022/02/09 03:22:19;;;;;;;24.67;13.13;;;;;;;;;;5036076;28;20488;-69
2022/02/09 03:46:20;;;;;;;22.40;11.20;;;;;;;;;;5034875;28;20498;-68
2022/02/09 03:54:27;;;;;;;36.50;12.07;;;;;;;;;;5034914;28;20072;-69
2022/02/09 03:59:19;;;;;;;27.77;10.63;;;;;;;;;;5034960;28;20033;-67
2022/02/09 04:01:45;;;;;;;33.27;9.33;;;;;;;;;;5034892;28;20032;-68
2022/02/09 04:04:12;;;;;;;23.13;7.70;;;;;;;;;;5034436;28;20382;-67
2022/02/09 04:06:39;;;;;;;18.67;8.17;;;;;;;;;;5033735;28;20033;-69
2022/02/09 04:09:09;;;;;;;20.70;9.50;;;;;;;;;;5033725;28;20041;-67
2022/02/09 04:11:45;;;;;;;25.17;9.77;;;;;;;;;;5034866;28;20036;-67
2022/02/09 04:17:10;;;;;;;23.30;10.53;;;;;;;;;;5034324;28;20033;-67
2022/02/09 04:54:26;;;;;;;16.97;9.57;;;;;;;;;;5034112;28;20045;-67
2022/02/09 04:57:06;;;;;;;18.27;9.40;;;;;;;;;;5033945;28;20481;-67
2022/02/09 04:59:48;;;;;;;18.13;8.93;;;;;;;;;;5033947;28;20079;-70
2022/02/09 05:20:06;;;;;;;18.97;9.23;;;;;;;;;;5033841;28;20430;-68
2022/02/09 05:26:42;;;;;;;16.58;8.73;;;;;;;;;;5033415;28;20025;-69
2022/02/09 05:29:08;;;;;;;17.90;9.03;;;;;;;;;;5033452;28;20103;-66
2022/02/09 05:31:34;;;;;;;15.47;8.40;;;;;;;;;;5033174;28;20025;-71
2022/02/09 05:34:00;;;;;;;19.10;8.30;;;;;;;;;;5033033;28;20406;-68
2022/02/09 05:36:26;;;;;;;18.77;8.13;;;;;;;;;;5033148;28;20469;-69
2022/02/09 05:38:52;;;;;;;14.07;7.73;;;;;;;;;;5033218;28;20037;-68
2022/02/09 05:41:18;;;;;;;25.77;7.97;;;;;;;;;;5033149;28;20026;-70
2022/02/09 05:43:44;;;;;;;13.30;7.40;;;;;;;;;;5033283;28;20029;-71
2022/02/09 05:51:52;;;;;;;18.70;7.40;;;;;;;;;;5033793;28;20481;-68
2022/02/09 05:54:37;;;;;;;16.27;6.93;;;;;;;;;;5033230;28;20466;-66
2022/02/09 05:57:13;;;;;;;13.70;6.83;;;;;;;;;;5032775;28;20030;-66
2022/02/09 05:59:39;;;;;;;15.20;7.73;;;;;;;;;;5031380;28;20160;-67
2022/02/09 06:02:06;;;;;;;24.43;7.30;;;;;;;;;;5031628;28;20021;-69
2022/02/09 06:04:34;;;;;;;15.97;7.73;;;;;;;;;;5031132;28;20021;-66
2022/02/09 06:07:00;;;;;;;16.70;7.30;;;;;;;;;;5032891;28;20021;-68
2022/02/09 06:09:27;;;;;;;23.23;7.93;;;;;;;;;;5032365;28;20045;-73
2022/02/09 06:12:08;;;;;;;17.47;7.87;;;;;;;;;;5032196;28;20466;-71
2022/02/09 06:14:51;;;;;;;17.27;7.10;;;;;;;;;;5031213;28;20044;-67
2022/02/09 06:20:04;;;;;;;23.70;8.47;;;;;;;;;;5032616;28;20040;-68
2022/02/09 06:22:31;;;;;;;18.77;8.43;;;;;;;;;;5032166;28;20026;-66
2022/02/09 06:24:57;;;;;;;20.97;8.97;;;;;;;;;;5032147;28;20075;-68
2022/02/09 06:27:23;;;;;;;20.53;8.97;;;;;;;;;;5031745;28;20401;-66
2022/02/09 06:29:49;;;;;;;19.13;9.00;;;;;;;;;;5031764;28;20113;-69
2022/02/09 06:32:16;;;;;;;21.13;9.03;;;;;;;;;;5032227;28;20105;-68
2022/02/09 06:34:43;;;;;;;21.07;10.10;;;;;;;;;;5031529;28;20504;-68
2022/02/09 06:39:58;;;;;;;19.00;9.00;;;;;;;;;;5032102;28;20045;-67
2022/02/09 06:42:25;;;;;;;23.23;9.10;;;;;;;;;;5031219;28;20021;-69
2022/02/09 06:44:52;;;;;;;29.23;9.60;;;;;;;;;;5032113;28;20474;-67
2022/02/09 06:47:23;;;;;;;32.57;9.07;;;;;;;;;;5030010;28;20022;-68
2022/02/09 06:49:59;;;;;;;31.83;9.33;;;;;;;;;;5030546;28;20022;-68
2022/02/09 06:52:25;;;;;;;28.60;9.87;;;;;;;;;;5034987;28;20045;-67
2022/02/09 07:00:16;;;;;;;26.77;10.27;;;;;;;;;;5035980;28;20069;-68
2022/02/09 07:02:43;;;;;;;56.57;11.80;;;;;;;;;;5036157;28;20034;-70
2022/02/09 07:05:09;;;;;;;36.27;11.00;;;;;;;;;;5035854;28;20516;-70
2022/02/09 07:07:35;;;;;;;25.17;9.43;;;;;;;;;;5034953;28;20029;-68
2022/02/09 07:10:02;;;;;;;20.70;9.10;;;;;;;;;;5031771;28;20057;-69
2022/02/09 07:12:28;;;;;;;27.33;10.87;;;;;;;;;;5034132;28;20113;-70
2022/02/09 07:14:54;;;;;;;23.80;11.07;;;;;;;;;;5046995;28;20504;-68
2022/02/09 07:17:20;;;;;;;28.83;11.50;;;;;;;;;;5049834;28;20037;-70
2022/02/09 07:22:39;;;;;;;27.03;11.90;;;;;;;;;;5052172;28;20075;-66
2022/02/09 07:25:17;;;;;;;27.83;12.50;;;;;;;;;;5054617;28;20062;-67
2022/02/09 07:30:14;;;;;;;24.80;10.53;;;;;;;;;;5053772;28;20179;-68
2022/02/09 07:32:40;;;;;;;37.00;10.53;;;;;;;;;;5054700;28;20108;-70
2022/02/09 07:35:06;;;;;;;36.17;10.43;;;;;;;;;;5053892;28;20041;-75
2022/02/09 07:37:32;;;;;;;26.20;9.30;;;;;;;;;;5053913;28;20381;-80
2022/02/09 07:39:59;;;;;;;28.40;9.40;;;;;;;;;;5038200;28;20030;-81
2022/02/09 07:42:28;;;;;;;23.17;8.93;;;;;;;;;;5034958;28;20092;-81
2022/02/09 07:47:40;;;;;;;20.53;9.27;;;;;;;;;;5034841;28;20030;-77
2022/02/09 07:50:31;;;;;;;19.97;9.50;;;;;;;;;;5034076;28;20032;-73
2022/02/09 07:53:10;;;;;;;17.47;8.47;;;;;;;;;;5033375;28;20018;-79
2022/02/09 07:55:37;;;;;;;22.73;8.07;;;;;;;;;;5050331;28;20132;-77
2022/02/09 07:58:03;;;;;;;20.03;8.20;;;;;;;;;;5055708;28;20103;-77
2022/02/09 08:00:29;;;;;;;23.50;8.77;;;;;;;;;;5054954;28;20025;-78
2022/02/09 08:02:57;;;;;;;25.40;8.90;;;;;;;;;;5053101;28;20052;-79
2022/02/09 08:05:23;;;;;;;22.30;9.40;;;;;;;;;;5054906;28;20021;-81
2022/02/09 08:07:49;;;;;;;35.50;10.27;;;;;;;;;;5054483;28;20025;-79
2022/02/09 08:11:09;;;;;;;16.27;9.27;;;;;;;;;;5052492;28;20048;-80
2022/02/09 08:34:09;;;;;;;19.37;8.10;;;;;;;;;;5052333;28;20107;-74
2022/02/09 08:36:36;;;;;;;12.87;7.20;;;;;;;;;;5052399;28;20090;-74
2022/02/09 08:39:03;;;;;;;14.23;7.27;;;;;;;;;;5053786;28;20025;-74
2022/02/09 08:41:29;;;;;;;16.83;6.60;;;;;;;;;;5053191;28;20056;-75
2022/02/09 08:43:55;;;;;;;11.90;6.03;;;;;;;;;;5053568;28;20025;-75
2022/02/09 08:46:21;;;;;;;11.43;5.87;;;;;;;;;;5052164;28;20382;-72
2022/02/09 08:48:47;;;;;;;12.83;5.57;;;;;;;;;;5052102;28;20025;-71
2022/02/09 08:51:14;;;;;;;12.67;5.37;;;;;;;;;;5053732;28;20025;-74
2022/02/09 08:53:40;;;;;;;19.20;6.13;;;;;;;;;;5053084;28;20025;-68
2022/02/09 08:56:09;;;;;;;10.13;5.63;;;;;;;;;;5051102;28;20083;-67
2022/02/09 08:58:36;;;;;;;16.03;6.67;;;;;;;;;;5052992;28;20491;-67
2022/02/09 09:01:12;;;;;;;17.80;6.87;;;;;;;;;;5053422;28;20029;-66
2022/02/09 09:03:59;;;;;;;11.40;6.73;;;;;;;;;;5053149;28;20090;-66
2022/02/09 09:06:27;;;;;;;13.70;7.33;;;;;;;;;;5053634;28;20029;-70
2022/02/09 09:31:11;;;;;;;11.50;5.90;;;;;;;;;;5052959;28;20573;-65
2022/02/09 10:03:27;;;;;;;12.50;4.23;;;;;;;;;;5053053;28;20029;-66
2022/02/09 10:34:09;;;;;;;9.33;4.30;;;;;;;;;;5052441;28;20037;-65
2022/02/09 10:36:44;;;;;;;13.90;4.60;;;;;;;;;;5051971;28;20025;-66
2022/02/09 10:39:13;;;;;;;11.20;4.47;;;;;;;;;;5055797;28;20377;-66
2022/02/09 10:42:17;;;;;;;11.70;4.70;;;;;;;;;;5056020;28;20457;-66
2022/02/09 10:44:50;;;;;;;11.30;4.60;;;;;;;;;;5052782;28;20045;-67
2022/02/09 10:47:20;;;;;;;10.70;4.30;;;;;;;;;;5056043;28;20098;-68
2022/02/09 10:50:05;;;;;;;8.80;4.50;;;;;;;;;;5055424;28;20052;-66
2022/02/09 10:52:42;;;;;;;8.43;4.63;;;;;;;;;;5055039;28;20029;-66
2022/02/09 10:55:27;;;;;;;12.17;5.00;;;;;;;;;;5055959;28;20037;-65
2022/02/09 10:57:53;;;;;;;12.43;5.23;;;;;;;;;;5055066;28;20082;-67
2022/02/09 11:00:20;;;;;;;9.20;5.10;;;;;;;;;;5053215;28;20539;-66
2022/02/09 11:02:47;;;;;;;11.13;5.50;;;;;;;;;;5053086;28;20047;-66
2022/02/09 11:05:15;;;;;;;10.30;5.00;;;;;;;;;;5055356;28;20408;-67
2022/02/09 11:07:43;;;;;;;10.30;5.90;;;;;;;;;;5055505;28;20025;-66
2022/02/09 11:10:09;;;;;;;10.27;5.53;;;;;;;;;;5055360;28;20448;-66
2022/02/09 11:12:36;;;;;;;13.10;6.00;;;;;;;;;;5055428;28;20519;-66
2022/02/09 11:15:03;;;;;;;10.30;5.80;;;;;;;;;;5056239;28;20440;-67
2022/02/09 11:17:31;;;;;;;10.57;5.53;;;;;;;;;;5055735;28;20382;-66
2022/02/09 11:19:58;;;;;;;9.00;6.23;;;;;;;;;;5055514;28;20029;-66
2022/02/09 11:22:28;;;;;;;9.83;6.10;;;;;;;;;;5055598;28;20025;-66
2022/02/09 11:25:12;;;;;;;10.00;6.17;;;;;;;;;;5054998;28;20029;-66
2022/02/09 11:27:40;;;;;;;10.27;6.37;;;;;;;;;;5055624;28;20614;-66
2022/02/09 11:30:40;;;;;;;14.50;6.13;;;;;;;;;;5055377;28;20111;-68
2022/02/09 11:36:04;;;;;;;11.33;5.70;;;;;;;;;;5054817;28;20041;-67
2022/02/09 11:38:37;;;;;;;13.10;6.17;;;;;;;;;;5050401;28;20076;-67
2022/02/09 11:41:15;;;;;;;9.40;5.67;;;;;;;;;;5052014;28;20035;-67
2022/02/09 11:46:39;;;;;;;15.80;6.13;;;;;;;;;;5053966;28;20112;-67
2022/02/09 11:50:09;;;;;;;9.40;5.93;;;;;;;;;;5055061;28;20032;-66
2022/02/09 12:11:09;;;;;;;12.00;6.25;;;;;;;;;;5054867;28;20047;-66
2022/02/09 12:13:48;;;;;;;10.13;5.90;;;;;;;;;;5054475;28;20035;-66
2022/02/09 12:19:08;;;;;;;13.40;7.75;;;;;;;;;;5053430;28;20428;-65
2022/02/09 12:21:49;;;;;;;13.40;7.80;;;;;;;;;;5054278;28;20072;-66
2022/02/09 12:24:19;;;;;;;9.80;6.90;;;;;;;;;;5054244;28;20033;-67
2022/02/09 12:26:53;;;;;;;9.50;7.88;;;;;;;;;;5054422;28;20025;-66
2022/02/09 12:29:19;;;;;;;13.27;6.68;;;;;;;;;;5052331;28;20398;-66
2022/02/09 12:31:45;;;;;;;13.73;7.10;;;;;;;;;;5051277;28;20494;-66
2022/02/09 12:34:22;;;;;;;8.35;7.18;;;;;;;;;;5050914;28;20424;-66
2022/02/09 12:36:48;;;;;;;9.00;6.97;;;;;;;;;;5053603;28;20036;-65
2022/02/09 12:39:15;;;;;;;13.05;6.97;;;;;;;;;;5053642;28;20031;-65
2022/02/09 12:41:43;;;;;;;9.98;7.55;;;;;;;;;;5050043;28;20428;-66
2022/02/09 12:44:09;;;;;;;9.57;6.97;;;;;;;;;;5037795;28;20040;-66
2022/02/09 12:46:42;;;;;;;13.07;7.20;;;;;;;;;;5041630;28;20036;-66
2022/02/09 12:49:12;;;;;;;9.68;7.38;;;;;;;;;;5043410;28;20027;-65
2022/02/09 12:51:39;;;;;;;14.02;7.60;;;;;;;;;;5044200;28;20019;-65
2022/02/09 12:54:05;;;;;;;9.23;6.78;;;;;;;;;;5042488;28;20091;-64
2022/02/09 12:56:35;;;;;;;10.77;6.97;;;;;;;;;;5043003;28;20446;-64
2022/02/09 12:59:12;;;;;;;11.00;6.68;;;;;;;;;;5036979;28;20116;-65
2022/02/09 13:01:59;;;;;;;9.02;6.85;;;;;;;;;;5033617;28;20035;-65
2022/02/09 13:04:31;;;;;;;11.88;6.78;;;;;;;;;;5036714;28;20017;-65
2022/02/09 13:06:57;;;;;;;7.35;6.55;;;;;;;;;;5041593;28;20493;-65
2022/02/09 13:09:25;;;;;;;8.85;7.15;;;;;;;;;;5039262;28;20490;-67
2022/02/09 13:11:51;;;;;;;11.20;7.40;;;;;;;;;;5029887;28;20032;-67
2022/02/09 13:14:28;;;;;;;10.82;7.63;;;;;;;;;;5031406;28;20116;-67
2022/02/09 14:12:26;;;;;;;8.60;7.07;;;;;;;;;;5032709;28;20164;-66
2022/02/09 14:15:25;;;;;;;15.10;7.95;;;;;;;;;;5047925;28;20498;-66
2022/02/09 14:57:47;;;;;;;17.70;8.55;;;;;;;;;;5052613;28;20029;-66
2022/02/09 15:00:19;;;;;;;14.80;11.00;;;;;;;;;;5052261;28;20155;-69
2022/02/09 15:05:40;;;;;;;11.77;8.85;;;;;;;;;;5051866;28;20033;-73
2022/02/09 15:08:22;;;;;;;17.10;10.20;;;;;;;;;;5051788;28;20033;-73
2022/02/09 15:11:05;;;;;;;13.63;8.73;;;;;;;;;;5051808;28;20064;-75
2022/02/09 15:16:14;;;;;;;17.08;10.25;;;;;;;;;;5056246;28;20033;-73
2022/02/09 15:23:38;;;;;;;17.25;10.38;;;;;;;;;;5055846;28;20108;-72
2022/02/09 15:26:05;;;;;;;12.70;8.20;;;;;;;;;;5055841;28;20025;-69
2022/02/09 15:28:33;;;;;;;9.60;6.57;;;;;;;;;;5055439;28;20083;-72
2022/02/09 15:31:17;;;;;;;14.02;7.88;;;;;;;;;;5055492;28;20422;-70
2022/02/09 15:33:48;;;;;;;23.05;10.77;;;;;;;;;;5055305;28;20477;-71
2022/02/09 15:36:17;;;;;;;14.60;9.30;;;;;;;;;;5055493;28;20392;-71
2022/02/09 15:38:46;;;;;;;10.52;8.32;;;;;;;;;;5055308;28;20021;-72
2022/02/09 16:05:47;;;;;;;18.27;8.52;;;;;;;;;;5054700;28;20550;-73
2022/02/09 16:09:03;;;;;;;11.38;7.80;;;;;;;;;;5054768;28;20017;-70
2022/02/09 16:11:13;;;;;;;16.63;8.63;;;;;;;;;;5054451;28;20057;-71
2022/02/09 16:22:35;;;;;;;20.40;10.13;;;;;;;;;;5044242;28;20398;-74
2022/02/09 16:25:08;;;;;;;16.67;9.23;;;;;;;;;;5039632;28;20061;-74
2022/02/09 16:46:15;;;;;;;25.77;18.27;;;;;;;;;;5043795;28;20032;-72
2022/02/09 16:48:50;;;;;;;29.10;19.47;;;;;;;;;;5042915;28;20394;-71
2022/02/09 16:51:19;;;;;;;20.27;12.90;;;;;;;;;;5033710;28;20625;-73
2022/02/09 16:54:00;;;;;;;27.30;10.97;;;;;;;;;;5039360;28;20499;-73
2022/02/09 16:56:40;;;;;;;16.83;10.03;;;;;;;;;;5036465;28;20509;-67
2022/02/09 17:21:03;;;;;;;25.77;15.00;;;;;;;;;;5043612;28;20041;-72
2022/02/09 17:23:29;;;;;;;24.63;14.73;;;;;;;;;;5041566;28;20018;-74
2022/02/09 17:25:55;;;;;;;23.73;14.73;;;;;;;;;;5040837;28;20464;-73
2022/02/09 17:28:21;;;;;;;20.80;14.30;;;;;;;;;;5040013;28;20025;-68
2022/02/09 17:33:35;;;;;;;23.10;14.47;;;;;;;;;;5044505;28;20025;-73
2022/02/09 17:36:11;;;;;;;25.67;15.07;;;;;;;;;;5032954;28;20069;-74
2022/02/09 17:39:26;;;;;;;24.70;15.37;;;;;;;;;;5032747;28;20043;-72
2022/02/09 17:55:48;;;;;;;36.53;15.73;;;;;;;;;;5032354;28;20052;-71
2022/02/09 17:58:18;;;;;;;36.10;16.30;;;;;;;;;;5032726;28;20524;-72
2022/02/09 18:00:44;;;;;;;27.53;16.70;;;;;;;;;;5031552;28;20030;-73
2022/02/09 18:03:11;;;;;;;30.30;18.63;;;;;;;;;;5032168;28;20025;-72
2022/02/09 18:05:52;;;;;;;33.07;19.50;;;;;;;;;;5032313;28;20024;-73
2022/02/09 18:29:58;;;;;;;33.20;19.43;;;;;;;;;;5047879;28;20853;-71
2022/02/09 18:45:42;;;;;;;38.23;21.63;;;;;;;;;;5044011;28;20029;-72
2022/02/09 19:15:16;;;;;;;46.17;20.73;;;;;;;;;;5055890;28;20060;-66
2022/02/09 19:20:28;;;;;;;46.20;21.00;;;;;;;;;;5056100;28;20492;-69
2022/02/09 19:31:05;;;;;;;40.00;20.97;;;;;;;;;;5056007;28;20029;-67
2022/02/09 19:46:58;;;;;;;46.20;23.20;;;;;;;;;;5055622;28;20056;-70
2022/02/09 19:57:02;;;;;;;56.93;28.93;;;;;;;;;;5055107;28;20037;-70
2022/02/09 19:59:30;;;;;;;58.63;28.23;;;;;;;;;;5054656;28;20019;-73
2022/02/09 20:01:57;;;;;;;50.13;25.73;;;;;;;;;;5055325;28;20024;-69
2022/02/09 20:04:24;;;;;;;47.13;25.30;;;;;;;;;;5055073;28;20499;-72
2022/02/09 20:06:50;;;;;;;56.67;27.17;;;;;;;;;;5055387;28;20053;-72
2022/02/09 20:09:18;;;;;;;44.23;25.23;;;;;;;;;;5054865;28;20041;-73
2022/02/09 20:11:44;;;;;;;45.07;25.37;;;;;;;;;;5055043;28;20025;-73
2022/02/09 20:14:14;;;;;;;43.63;26.43;;;;;;;;;;5055183;28;20452;-73
2022/02/09 20:16:41;;;;;;;56.53;34.33;;;;;;;;;;5055086;28;20067;-73
2022/02/09 20:19:07;;;;;;;54.47;27.77;;;;;;;;;;5054892;28;20017;-73
2022/02/09 20:21:33;;;;;;;48.40;28.37;;;;;;;;;;5054632;28;20483;-73
2022/02/09 20:24:04;;;;;;;55.47;29.90;;;;;;;;;;5054708;28;20044;-73
2022/02/09 20:26:30;;;;;;;69.43;33.63;;;;;;;;;;5054701;28;20013;-73
2022/02/09 20:29:05;;;;;;;65.57;36.10;;;;;;;;;;5054644;28;20481;-73
2022/02/09 20:31:35;;;;;;;65.93;36.63;;;;;;;;;;5054828;28;20017;-73
2022/02/09 20:34:15;;;;;;;64.03;35.03;;;;;;;;;;5054501;28;20021;-73
2022/02/09 20:36:43;;;;;;;74.70;36.90;;;;;;;;;;5054563;28;20029;-74
2022/02/09 20:39:13;;;;;;;59.90;35.60;;;;;;;;;;5054244;28;20028;-73
2022/02/09 20:41:40;;;;;;;61.63;35.90;;;;;;;;;;5054456;28;20025;-72
2022/02/09 20:47:11;;;;;;;59.30;35.83;;;;;;;;;;5032219;28;20064;-72
2022/02/09 20:49:37;;;;;;;63.30;37.10;;;;;;;;;;5031903;28;20025;-72
2022/02/09 20:52:03;;;;;;;71.43;37.50;;;;;;;;;;5042689;28;20069;-73
2022/02/09 20:54:29;;;;;;;59.87;34.97;;;;;;;;;;5054243;28;20091;-74
2022/02/09 20:56:56;;;;;;;62.60;34.27;;;;;;;;;;5054243;28;20385;-72
2022/02/09 20:59:23;;;;;;;68.93;36.07;;;;;;;;;;5053922;28;20064;-73
2022/02/09 21:04:17;;;;;;;59.47;35.00;;;;;;;;;;5053907;28;20040;-72
2022/02/09 21:10:23;;;;;;;61.03;33.40;;;;;;;;;;5053099;28;20123;-72
2022/02/09 21:15:05;;;;;;;69.43;32.80;;;;;;;;;;5053928;28;20067;-72
2022/02/09 21:18:52;;;;;;;65.17;31.50;;;;;;;;;;5053635;28;20047;-73
2022/02/09 21:20:50;;;;;;;57.93;30.10;;;;;;;;;;5048389;28;20065;-73
2022/02/09 22:27:26;;;;;;;64.93;35.37;;;;;;;;;;5035749;28;20045;-65
2022/02/09 22:48:58;;;;;;;53.27;28.33;;;;;;;;;;5035623;28;20041;-66
2022/02/09 22:56:36;;;;;;;55.57;28.87;;;;;;;;;;5035142;28;20041;-66
2022/02/09 22:59:06;;;;;;;49.97;28.30;;;;;;;;;;5034521;28;20072;-66
2022/02/09 23:04:32;;;;;;;41.87;26.53;;;;;;;;;;5034605;28;20427;-66
2022/02/09 23:07:29;;;;;;;51.37;27.67;;;;;;;;;;5034379;28;20084;-66
2022/02/09 23:15:16;;;;;;;54.93;28.93;;;;;;;;;;5034733;28;20393;-66
2022/02/09 23:25:47;;;;;;;53.27;31.60;;;;;;;;;;5034378;28;20460;-66
2022/02/09 23:53:20;;;;;;;43.80;26.87;;;;;;;;;;5034502;28;20040;-67
